Time;durP1;ratioP1;P1;durP2;ratioP2;P2;SDS_P1;SDS_P2;PMS_P1;PMS_P2;Temp;Humidity;BMP_temperature;BMP_pressure;BME280_temperature;BME280_humidity;BME280_pressure;Samples;Min_cycle;Max_cycle;Signal;HPM_P1;HPM_P2
2022/02/05 00:01:49;;;;;;;0.50;0.50;;;;;;;;;;5073409;28;20583;-63
2022/02/05 00:04:16;;;;;;;0.50;0.50;;;;;;;;;;5074031;28;20400;-63
2022/02/05 00:06:46;;;;;;;0.60;0.60;;;;;;;;;;5074109;28;20167;-62
2022/02/05 00:09:21;;;;;;;0.50;0.50;;;;;;;;;;5073779;28;20165;-63
2022/02/05 00:38:18;;;;;;;0.50;0.50;;;;;;;;;;5073524;28;20251;-63
2022/02/05 00:38:56;;;;;;;0.50;0.50;;;;;;;;;;5073658;28;20189;-63
2022/02/05 00:43:58;;;;;;;0.50;0.50;;;;;;;;;;5073488;28;20241;-62
2022/02/05 00:46:27;;;;;;;0.50;0.50;;;;;;;;;;5073336;28;20690;-63
2022/02/05 00:48:53;;;;;;;0.50;0.50;;;;;;;;;;5073095;28;20192;-63
2022/02/05 00:51:28;;;;;;;0.60;0.60;;;;;;;;;;5072845;28;20195;-63
2022/02/05 00:54:16;;;;;;;0.50;0.50;;;;;;;;;;5073204;28;20597;-63
2022/02/05 00:56:51;;;;;;;0.60;0.60;;;;;;;;;;5073158;28;20540;-63
2022/02/05 00:59:20;;;;;;;0.50;0.50;;;;;;;;;;5072809;28;20179;-63
2022/02/05 01:01:47;;;;;;;0.50;0.50;;;;;;;;;;5072654;28;20204;-63
2022/02/05 01:04:13;;;;;;;0.60;0.60;;;;;;;;;;5072580;28;20297;-63
2022/02/05 01:06:39;;;;;;;0.50;0.50;;;;;;;;;;5072942;28;20169;-63
2022/02/05 01:09:09;;;;;;;0.50;0.50;;;;;;;;;;5072752;28;20542;-63
2022/02/05 01:11:35;;;;;;;0.50;0.50;;;;;;;;;;5072494;28;20168;-63
2022/02/05 01:14:03;;;;;;;0.50;0.50;;;;;;;;;;5072732;28;20259;-63
2022/02/05 01:16:45;;;;;;;0.50;0.50;;;;;;;;;;5072622;28;20164;-63
2022/02/05 01:19:24;;;;;;;0.50;0.50;;;;;;;;;;5072608;28;20173;-63
2022/02/05 01:21:54;;;;;;;0.50;0.50;;;;;;;;;;5072261;28;20203;-63
2022/02/05 01:24:22;;;;;;;0.50;0.50;;;;;;;;;;5072485;28;20167;-63
2022/02/05 01:32:15;;;;;;;0.50;0.50;;;;;;;;;;5072175;28;20172;-63
2022/02/05 01:34:59;;;;;;;0.40;0.40;;;;;;;;;;5072224;28;20167;-62
2022/02/05 01:51:01;;;;;;;0.60;0.60;;;;;;;;;;5071945;28;20194;-62
2022/02/05 01:56:15;;;;;;;0.60;0.60;;;;;;;;;;5072035;28;20175;-62
2022/02/05 02:04:54;;;;;;;0.50;0.50;;;;;;;;;;5002740;28;20303;-63
2022/02/05 02:12:43;;;;;;;0.60;0.60;;;;;;;;;;5071837;28;20183;-63
2022/02/05 02:15:18;;;;;;;0.60;0.60;;;;;;;;;;5071344;28;20417;-63
2022/02/05 02:20:51;;;;;;;0.50;0.50;;;;;;;;;;5071494;28;20215;-63
2022/02/05 02:26:05;;;;;;;0.50;0.50;;;;;;;;;;5072095;28;20666;-63
2022/02/05 02:28:51;;;;;;;0.50;0.50;;;;;;;;;;5071718;28;20258;-62
2022/02/05 02:31:26;;;;;;;0.50;0.50;;;;;;;;;;5071361;28;20207;-62
2022/02/05 02:33:55;;;;;;;0.60;0.60;;;;;;;;;;5071125;28;20672;-63
2022/02/05 02:39:04;;;;;;;0.50;0.50;;;;;;;;;;5071468;28;20175;-63
2022/02/05 02:41:37;;;;;;;0.50;0.50;;;;;;;;;;5072774;28;20198;-61
2022/02/05 02:44:03;;;;;;;0.50;0.50;;;;;;;;;;5072710;28;20221;-62
2022/02/05 02:46:30;;;;;;;0.50;0.50;;;;;;;;;;5071386;28;20175;-62
2022/02/05 02:48:56;;;;;;;0.50;0.50;;;;;;;;;;5071362;28;20179;-60
2022/02/05 02:56:59;;;;;;;0.60;0.60;;;;;;;;;;5071427;28;20218;-63
2022/02/05 02:59:29;;;;;;;0.50;0.50;;;;;;;;;;5071222;28;20230;-63
2022/02/05 03:02:07;;;;;;;0.50;0.50;;;;;;;;;;5070751;28;20195;-63
2022/02/05 03:04:33;;;;;;;0.50;0.50;;;;;;;;;;5071212;28;20179;-63
2022/02/05 03:06:59;;;;;;;0.50;0.50;;;;;;;;;;5071220;28;20171;-61
2022/02/05 03:09:25;;;;;;;0.50;0.50;;;;;;;;;;5071076;28;20794;-63
2022/02/05 03:11:51;;;;;;;0.50;0.50;;;;;;;;;;5070987;28;20401;-63
2022/02/05 03:14:17;;;;;;;0.50;0.50;;;;;;;;;;5053156;28;20197;-61
2022/02/05 03:16:49;;;;;;;0.60;0.60;;;;;;;;;;5071087;28;20413;-60
2022/02/05 03:19:15;;;;;;;0.50;0.50;;;;;;;;;;5070934;28;20190;-62
2022/02/05 03:21:42;;;;;;;0.50;0.50;;;;;;;;;;5070820;28;20198;-63
2022/02/05 03:24:08;;;;;;;0.50;0.50;;;;;;;;;;5071158;28;20173;-63
2022/02/05 03:26:35;;;;;;;0.57;0.57;;;;;;;;;;5071737;28;20217;-61
2022/02/05 03:29:01;;;;;;;0.50;0.50;;;;;;;;;;5074804;28;20632;-63
2022/02/05 03:31:28;;;;;;;0.60;0.60;;;;;;;;;;5074424;28;20183;-63
2022/02/05 03:33:53;;;;;;;0.50;0.50;;;;;;;;;;5074610;28;20873;-63
2022/02/05 03:36:19;;;;;;;0.53;0.53;;;;;;;;;;5074604;28;20178;-62
2022/02/05 03:38:45;;;;;;;0.50;0.50;;;;;;;;;;5074538;28;20409;-63
2022/02/05 03:41:11;;;;;;;0.60;0.60;;;;;;;;;;5074166;28;20951;-61
2022/02/05 03:43:37;;;;;;;0.50;0.50;;;;;;;;;;5074411;28;20393;-63
2022/02/05 03:46:03;;;;;;;0.60;0.60;;;;;;;;;;5074377;28;20964;-61
2022/02/05 03:48:29;;;;;;;0.50;0.50;;;;;;;;;;5074193;28;20429;-63
2022/02/05 03:50:55;;;;;;;0.60;0.60;;;;;;;;;;5056149;28;20429;-63
2022/02/05 03:53:21;;;;;;;0.50;0.50;;;;;;;;;;5074479;28;20410;-62
2022/02/05 03:55:47;;;;;;;0.50;0.50;;;;;;;;;;5074426;28;20182;-63
2022/02/05 03:58:13;;;;;;;0.50;0.50;;;;;;;;;;5074161;28;20496;-61
2022/02/05 04:00:39;;;;;;;0.50;0.50;;;;;;;;;;5073752;28;20469;-61
2022/02/05 04:03:06;;;;;;;0.57;0.57;;;;;;;;;;5074100;28;20206;-61
2022/02/05 04:05:32;;;;;;;0.60;0.60;;;;;;;;;;5074889;28;20239;-61
2022/02/05 04:07:59;;;;;;;0.60;0.60;;;;;;;;;;5074147;28;20175;-61
2022/02/05 04:10:30;;;;;;;0.60;0.60;;;;;;;;;;5074373;28;20673;-61
2022/02/05 04:18:42;;;;;;;0.50;0.50;;;;;;;;;;4991416;28;20244;-63
2022/02/05 04:21:08;;;;;;;0.60;0.60;;;;;;;;;;5062175;28;20235;-63
2022/02/05 04:23:34;;;;;;;0.57;0.57;;;;;;;;;;5080872;28;20418;-63
2022/02/05 04:26:00;;;;;;;0.60;0.60;;;;;;;;;;5078597;28;20763;-62
2022/02/05 04:28:26;;;;;;;0.60;0.60;;;;;;;;;;5087095;28;20609;-60
2022/02/05 04:30:52;;;;;;;0.50;0.50;;;;;;;;;;5086615;28;20242;-63
2022/02/05 04:33:18;;;;;;;0.50;0.50;;;;;;;;;;5093881;28;20817;-61
2022/02/05 04:35:45;;;;;;;0.50;0.50;;;;;;;;;;5088100;28;20416;-62
2022/02/05 04:38:11;;;;;;;0.50;0.50;;;;;;;;;;5072829;28;20645;-63
2022/02/05 04:40:48;;;;;;;0.60;0.60;;;;;;;;;;5085402;28;20623;-63
2022/02/05 04:54:00;;;;;;;0.50;0.50;;;;;;;;;;5073332;28;20179;-63
2022/02/05 04:56:39;;;;;;;0.50;0.50;;;;;;;;;;5073125;28;20661;-63
2022/02/05 05:04:36;;;;;;;0.50;0.50;;;;;;;;;;5072987;28;20210;-62
2022/02/05 05:10:22;;;;;;;0.50;0.50;;;;;;;;;;5072794;28;20199;-61
2022/02/05 05:12:51;;;;;;;0.60;0.60;;;;;;;;;;5072017;28;20207;-63
2022/02/05 05:20:34;;;;;;;0.60;0.60;;;;;;;;;;5072295;28;20222;-62
2022/02/05 05:23:00;;;;;;;0.50;0.50;;;;;;;;;;5072621;28;20163;-63
2022/02/05 05:25:26;;;;;;;0.50;0.50;;;;;;;;;;5072507;28;20179;-62
2022/02/05 05:27:52;;;;;;;0.50;0.50;;;;;;;;;;5072361;28;20417;-62
2022/02/05 05:30:17;;;;;;;0.50;0.50;;;;;;;;;;5071867;28;20457;-62
2022/02/05 05:32:43;;;;;;;0.50;0.50;;;;;;;;;;5072236;28;20414;-62
2022/02/05 05:35:10;;;;;;;0.50;0.50;;;;;;;;;;5072345;28;20179;-63
2022/02/05 05:37:36;;;;;;;0.50;0.50;;;;;;;;;;5072155;28;20472;-63
2022/02/05 05:40:02;;;;;;;0.60;0.60;;;;;;;;;;5071930;28;20241;-63
2022/02/05 05:42:35;;;;;;;0.50;0.50;;;;;;;;;;5071873;28;20167;-62
2022/02/05 05:52:20;;;;;;;0.50;0.50;;;;;;;;;;5071623;28;20608;-62
2022/02/05 05:54:46;;;;;;;0.50;0.50;;;;;;;;;;5076215;28;20177;-62
2022/02/05 05:57:13;;;;;;;0.60;0.60;;;;;;;;;;5071863;28;20174;-62
2022/02/05 05:59:39;;;;;;;0.60;0.60;;;;;;;;;;5071661;28;20421;-63
2022/02/05 06:02:06;;;;;;;0.60;0.60;;;;;;;;;;5071291;28;20242;-63
2022/02/05 06:04:32;;;;;;;0.50;0.50;;;;;;;;;;5071893;28;20172;-63
2022/02/05 06:06:58;;;;;;;0.50;0.50;;;;;;;;;;5071946;28;20168;-63
2022/02/05 06:09:24;;;;;;;0.50;0.50;;;;;;;;;;5071790;28;20893;-63
2022/02/05 06:11:50;;;;;;;0.57;0.57;;;;;;;;;;5053455;28;20938;-63
2022/02/05 06:14:21;;;;;;;0.50;0.50;;;;;;;;;;5072114;28;20177;-63
2022/02/05 06:16:51;;;;;;;0.50;0.50;;;;;;;;;;5072281;28;20440;-63
2022/02/05 06:19:18;;;;;;;0.60;0.60;;;;;;;;;;5071691;28;20171;-63
2022/02/05 06:21:44;;;;;;;0.50;0.50;;;;;;;;;;5071377;28;20229;-60
2022/02/05 06:24:10;;;;;;;0.50;0.50;;;;;;;;;;5071577;28;20547;-63
2022/02/05 06:26:36;;;;;;;0.60;0.60;;;;;;;;;;5071644;28;20642;-63
2022/02/05 06:29:02;;;;;;;0.50;0.50;;;;;;;;;;5071375;28;20213;-63
2022/02/05 06:31:27;;;;;;;0.50;0.50;;;;;;;;;;5071423;28;20561;-63
2022/02/05 06:33:53;;;;;;;0.50;0.50;;;;;;;;;;5071501;28;20406;-63
2022/02/05 06:36:19;;;;;;;0.50;0.50;;;;;;;;;;5071549;28;20405;-63
2022/02/05 06:38:47;;;;;;;0.50;0.50;;;;;;;;;;5053385;28;20422;-63
2022/02/05 06:41:13;;;;;;;0.60;0.60;;;;;;;;;;5071202;28;20457;-63
2022/02/05 06:43:38;;;;;;;0.50;0.50;;;;;;;;;;5071490;28;20201;-63
2022/02/05 06:46:05;;;;;;;0.50;0.50;;;;;;;;;;5071367;28;20172;-63
2022/02/05 06:48:31;;;;;;;0.65;0.65;;;;;;;;;;5071424;28;20398;-63
2022/02/05 06:50:57;;;;;;;0.60;0.60;;;;;;;;;;5070969;28;20222;-63
2022/02/05 06:53:23;;;;;;;0.57;0.57;;;;;;;;;;5071162;28;20176;-62
2022/02/05 06:55:49;;;;;;;0.60;0.60;;;;;;;;;;5071210;28;20248;-62
2022/02/05 06:58:15;;;;;;;0.50;0.50;;;;;;;;;;5071218;28;20823;-63
2022/02/05 07:00:41;;;;;;;0.50;0.50;;;;;;;;;;5070920;28;20455;-62
2022/02/05 07:03:08;;;;;;;0.53;0.53;;;;;;;;;;5074501;28;20410;-63
2022/02/05 07:05:34;;;;;;;0.50;0.50;;;;;;;;;;5075256;28;20410;-63
2022/02/05 07:08:00;;;;;;;0.50;0.50;;;;;;;;;;5075181;28;20206;-62
2022/02/05 07:10:26;;;;;;;0.47;0.47;;;;;;;;;;5074849;28;20195;-61
2022/02/05 07:15:41;;;;;;;0.50;0.50;;;;;;;;;;5075158;28;20465;-63
2022/02/05 07:23:28;;;;;;;0.50;0.50;;;;;;;;;;5075095;28;20703;-63
2022/02/05 07:31:21;;;;;;;0.60;0.60;;;;;;;;;;5094976;28;20211;-63
2022/02/05 07:33:48;;;;;;;0.60;0.60;;;;;;;;;;5094996;28;20217;-62
2022/02/05 07:36:16;;;;;;;0.50;0.50;;;;;;;;;;5094378;28;20220;-63
2022/02/05 07:38:42;;;;;;;0.50;0.50;;;;;;;;;;5094610;28;20185;-62
2022/02/05 07:41:08;;;;;;;0.50;0.50;;;;;;;;;;5094348;28;20227;-62
2022/02/05 07:43:35;;;;;;;0.60;0.60;;;;;;;;;;5094800;28;20638;-62
2022/02/05 07:46:09;;;;;;;0.60;0.60;;;;;;;;;;5076437;28;20554;-62
2022/02/05 07:48:35;;;;;;;0.50;0.50;;;;;;;;;;5094397;28;20672;-62
2022/02/05 07:51:01;;;;;;;0.50;0.50;;;;;;;;;;5094350;28;20224;-62
2022/02/05 07:53:27;;;;;;;0.60;0.60;;;;;;;;;;5094544;28;20175;-63
2022/02/05 07:55:53;;;;;;;0.43;0.43;;;;;;;;;;5094408;28;20203;-62
2022/02/05 07:58:19;;;;;;;0.50;0.50;;;;;;;;;;5094497;28;20656;-62
2022/02/05 08:00:45;;;;;;;0.50;0.50;;;;;;;;;;5094040;28;20278;-62
2022/02/05 08:03:11;;;;;;;0.60;0.60;;;;;;;;;;5094320;28;20389;-62
2022/02/05 08:05:37;;;;;;;0.50;0.50;;;;;;;;;;5094212;28;20396;-62
2022/02/05 08:08:06;;;;;;;0.50;0.50;;;;;;;;;;5094150;28;20830;-62
2022/02/05 08:10:37;;;;;;;0.50;0.50;;;;;;;;;;5093874;28;20186;-61
2022/02/05 08:13:04;;;;;;;0.50;0.50;;;;;;;;;;5093344;28;20206;-63
2022/02/05 08:15:31;;;;;;;0.50;0.50;;;;;;;;;;5094265;28;20267;-61
2022/02/05 08:17:58;;;;;;;0.50;0.50;;;;;;;;;;5094125;28;20170;-63
2022/02/05 08:20:24;;;;;;;0.50;0.50;;;;;;;;;;5093699;28;20706;-63
2022/02/05 08:22:50;;;;;;;0.50;0.50;;;;;;;;;;5093926;28;20171;-63
2022/02/05 08:25:17;;;;;;;0.70;0.70;;;;;;;;;;5093813;28;20209;-62
2022/02/05 08:27:43;;;;;;;0.50;0.50;;;;;;;;;;5093856;28;20176;-63
2022/02/05 08:30:12;;;;;;;0.60;0.60;;;;;;;;;;5093487;28;20210;-63
2022/02/05 08:32:38;;;;;;;0.50;0.50;;;;;;;;;;5093857;28;20187;-63
2022/02/05 08:35:06;;;;;;;0.60;0.60;;;;;;;;;;5093890;28;20229;-63
2022/02/05 08:37:34;;;;;;;0.50;0.50;;;;;;;;;;5093586;28;20168;-63
2022/02/05 08:40:00;;;;;;;0.50;0.50;;;;;;;;;;5093736;28;20695;-63
2022/02/05 08:42:27;;;;;;;0.60;0.60;;;;;;;;;;5093335;28;20166;-63
2022/02/05 08:44:53;;;;;;;0.50;0.50;;;;;;;;;;5093525;28;20480;-63
2022/02/05 08:47:19;;;;;;;0.50;0.50;;;;;;;;;;5093426;28;20334;-63
2022/02/05 08:49:45;;;;;;;0.50;0.50;;;;;;;;;;5093308;28;20419;-63
2022/02/05 08:52:12;;;;;;;0.50;0.50;;;;;;;;;;5093044;28;20419;-63
2022/02/05 08:54:39;;;;;;;0.60;0.60;;;;;;;;;;5093462;28;20892;-63
2022/02/05 08:57:06;;;;;;;0.50;0.50;;;;;;;;;;5093146;28;20173;-63
2022/02/05 08:59:44;;;;;;;0.50;0.50;;;;;;;;;;5093130;28;20674;-63
2022/02/05 09:02:23;;;;;;;0.50;0.50;;;;;;;;;;5092904;28;20613;-63
2022/02/05 09:04:57;;;;;;;0.50;0.50;;;;;;;;;;5093111;28;20264;-63
2022/02/05 09:07:23;;;;;;;0.50;0.50;;;;;;;;;;5093222;28;20182;-63
2022/02/05 09:14:44;;;;;;;0.50;0.50;;;;;;;;;;5096368;28;20475;-62
2022/02/05 09:17:10;;;;;;;0.50;0.50;;;;;;;;;;5093056;28;20422;-63
2022/02/05 09:19:36;;;;;;;0.50;0.50;;;;;;;;;;5092719;28;20228;-62
2022/02/05 09:22:04;;;;;;;0.50;0.50;;;;;;;;;;5092450;28;20204;-63
2022/02/05 09:24:30;;;;;;;0.60;0.60;;;;;;;;;;5092587;28;20201;-63
2022/02/05 09:27:02;;;;;;;0.60;0.60;;;;;;;;;;5092685;28;20169;-63
2022/02/05 09:29:31;;;;;;;0.50;0.50;;;;;;;;;;5092451;28;20292;-63
2022/02/05 09:31:57;;;;;;;0.50;0.50;;;;;;;;;;5092333;28;20263;-63
2022/02/05 09:34:23;;;;;;;0.50;0.50;;;;;;;;;;5074372;28;20206;-63
2022/02/05 09:36:49;;;;;;;0.55;0.55;;;;;;;;;;5072238;28;20175;-63
2022/02/05 09:39:15;;;;;;;0.50;0.50;;;;;;;;;;5072069;28;20541;-63
2022/02/05 09:41:42;;;;;;;0.50;0.50;;;;;;;;;;5071839;28;20846;-63
2022/02/05 09:44:08;;;;;;;0.50;0.50;;;;;;;;;;5072042;28;20249;-63
2022/02/05 09:46:34;;;;;;;0.40;0.40;;;;;;;;;;5071949;28;20182;-63
2022/02/05 09:49:01;;;;;;;0.40;0.40;;;;;;;;;;5072130;28;20711;-62
2022/02/05 09:51:32;;;;;;;0.50;0.50;;;;;;;;;;5071845;28;20188;-63
2022/02/05 09:54:01;;;;;;;0.50;0.50;;;;;;;;;;5071995;28;20171;-63
2022/02/05 09:56:27;;;;;;;0.50;0.50;;;;;;;;;;5071862;28;20727;-63
2022/02/05 09:58:54;;;;;;;0.47;0.47;;;;;;;;;;5053876;28;20190;-63
2022/02/05 10:01:23;;;;;;;0.50;0.50;;;;;;;;;;5071558;28;20212;-63
2022/02/05 10:03:50;;;;;;;0.47;0.47;;;;;;;;;;5071978;28;20177;-63
2022/02/05 10:06:19;;;;;;;0.50;0.50;;;;;;;;;;5072946;28;20169;-62
2022/02/05 10:09:01;;;;;;;0.50;0.50;;;;;;;;;;5071978;28;20258;-63
2022/02/05 10:11:31;;;;;;;0.50;0.50;;;;;;;;;;5096104;23;20229;-64
2022/02/05 10:14:12;;;;;;;0.50;0.50;;;;;;;;;;5090694;28;20238;-64
2022/02/05 10:16:38;;;;;;;0.50;0.50;;;;;;;;;;5090407;28;20157;-64
2022/02/05 10:19:04;;;;;;;0.40;0.40;;;;;;;;;;5090765;28;20172;-64
2022/02/05 10:21:30;;;;;;;0.50;0.50;;;;;;;;;;5090427;28;21082;-64
2022/02/05 10:24:05;;;;;;;0.50;0.50;;;;;;;;;;5090918;28;20171;-64
2022/02/05 10:26:31;;;;;;;0.50;0.50;;;;;;;;;;5090737;28;20580;-64
2022/02/05 10:28:58;;;;;;;0.47;0.47;;;;;;;;;;5091202;28;20173;-64
2022/02/05 10:31:25;;;;;;;0.40;0.40;;;;;;;;;;5091068;28;20457;-64
2022/02/05 10:34:03;;;;;;;0.50;0.50;;;;;;;;;;5091319;28;20564;-64
2022/02/05 10:36:30;;;;;;;0.40;0.40;;;;;;;;;;5090937;28;20174;-64
2022/02/05 10:39:13;;;;;;;0.50;0.50;;;;;;;;;;5091510;28;20176;-64
2022/02/05 10:44:26;;;;;;;0.50;0.50;;;;;;;;;;5091571;28;20884;-64
2022/02/05 10:46:56;;;;;;;0.60;0.60;;;;;;;;;;5091277;28;20533;-64
2022/02/05 10:49:44;;;;;;;0.50;0.50;;;;;;;;;;5091159;28;20669;-64
2022/02/05 10:52:24;;;;;;;0.50;0.50;;;;;;;;;;5090916;28;20205;-64
2022/02/05 10:54:58;;;;;;;0.50;0.50;;;;;;;;;;5091180;28;20589;-64
2022/02/05 10:57:33;;;;;;;0.50;0.50;;;;;;;;;;5091295;28;20578;-64
2022/02/05 11:05:14;;;;;;;0.45;0.45;;;;;;;;;;5091319;28;20554;-64
2022/02/05 11:05:49;;;;;;;0.40;0.40;;;;;;;;;;5090966;28;20688;-64
2022/02/05 11:08:15;;;;;;;0.40;0.40;;;;;;;;;;5091043;28;20167;-62
2022/02/05 11:21:04;;;;;;;0.40;0.40;;;;;;;;;;5090651;28;20251;-63
2022/02/05 11:23:30;;;;;;;0.40;0.40;;;;;;;;;;5090751;28;20936;-63
2022/02/05 11:25:57;;;;;;;0.30;0.30;;;;;;;;;;5090702;28;20486;-63
2022/02/05 11:28:43;;;;;;;0.40;0.40;;;;;;;;;;5090700;28;20408;-63
2022/02/05 11:31:13;;;;;;;0.40;0.40;;;;;;;;;;5090434;28;20763;-63
2022/02/05 11:33:39;;;;;;;0.30;0.30;;;;;;;;;;5090932;28;21058;-63
2022/02/05 11:38:45;;;;;;;0.30;0.30;;;;;;;;;;5090684;28;20400;-63
2022/02/05 11:41:29;;;;;;;0.30;0.30;;;;;;;;;;5090244;28;20462;-64
2022/02/05 11:44:13;;;;;;;0.30;0.30;;;;;;;;;;5090719;28;20436;-63
2022/02/05 11:46:39;;;;;;;0.30;0.30;;;;;;;;;;5090553;28;20800;-63
2022/02/05 11:49:06;;;;;;;0.30;0.30;;;;;;;;;;5092140;28;20496;-63
2022/02/05 11:51:43;;;;;;;0.30;0.30;;;;;;;;;;5093898;28;21134;-63
2022/02/05 11:54:15;;;;;;;0.30;0.30;;;;;;;;;;5093907;28;20390;-63
2022/02/05 11:59:24;;;;;;;0.30;0.30;;;;;;;;;;5094594;28;20404;-63
2022/02/05 12:01:51;;;;;;;0.30;0.30;;;;;;;;;;5093508;28;20476;-63
2022/02/05 12:04:23;;;;;;;0.40;0.40;;;;;;;;;;5094506;28;20384;-64
2022/02/05 12:06:54;;;;;;;0.40;0.40;;;;;;;;;;5094574;28;20401;-63
2022/02/05 12:09:36;;;;;;;0.40;0.40;;;;;;;;;;5094642;28;20406;-63
2022/02/05 12:12:21;;;;;;;0.40;0.40;;;;;;;;;;5093768;28;20867;-63
2022/02/05 12:15:05;;;;;;;0.40;0.40;;;;;;;;;;5094026;28;20430;-63
2022/02/05 12:17:53;;;;;;;0.40;0.40;;;;;;;;;;5093929;28;20461;-63
2022/02/05 12:20:25;;;;;;;0.40;0.40;;;;;;;;;;5093762;28;20412;-63
2022/02/05 12:23:11;;;;;;;0.40;0.40;;;;;;;;;;5093770;28;20423;-63
2022/02/05 12:25:56;;;;;;;0.40;0.40;;;;;;;;;;5094072;28;20404;-63
2022/02/05 12:28:31;;;;;;;0.40;0.40;;;;;;;;;;5093828;28;20436;-63
2022/02/05 12:31:00;;;;;;;0.40;0.40;;;;;;;;;;5093291;28;20176;-63
2022/02/05 12:33:27;;;;;;;0.40;0.40;;;;;;;;;;5093590;28;20262;-63
2022/02/05 12:35:55;;;;;;;0.40;0.40;;;;;;;;;;5093837;28;20261;-64
2022/02/05 12:38:22;;;;;;;0.40;0.40;;;;;;;;;;5093696;28;20436;-63
2022/02/05 12:40:49;;;;;;;0.40;0.40;;;;;;;;;;5093158;28;20190;-64
2022/02/05 12:43:16;;;;;;;0.40;0.40;;;;;;;;;;5093419;28;20421;-63
2022/02/05 12:45:54;;;;;;;0.40;0.40;;;;;;;;;;5093365;28;20171;-63
2022/02/05 12:48:22;;;;;;;0.40;0.40;;;;;;;;;;5093332;28;20536;-64
2022/02/05 12:50:49;;;;;;;0.40;0.40;;;;;;;;;;5093120;28;20243;-64
2022/02/05 12:53:15;;;;;;;0.40;0.40;;;;;;;;;;5093200;28;20505;-63
2022/02/05 12:55:48;;;;;;;0.40;0.40;;;;;;;;;;5093012;28;20413;-63
2022/02/05 12:58:18;;;;;;;0.40;0.40;;;;;;;;;;5076057;28;20244;-63
2022/02/05 13:00:44;;;;;;;0.40;0.40;;;;;;;;;;5092435;28;20210;-63
2022/02/05 13:03:23;;;;;;;0.40;0.40;;;;;;;;;;5093154;28;20263;-63
2022/02/05 13:05:50;;;;;;;0.40;0.40;;;;;;;;;;5075253;28;20170;-63
2022/02/05 13:08:16;;;;;;;0.40;0.40;;;;;;;;;;5092906;28;20201;-63
2022/02/05 13:10:42;;;;;;;0.40;0.40;;;;;;;;;;5092473;28;20210;-63
2022/02/05 13:13:08;;;;;;;0.40;0.40;;;;;;;;;;5092606;28;20468;-63
2022/02/05 13:15:34;;;;;;;0.43;0.43;;;;;;;;;;5092753;28;20178;-63
2022/02/05 13:28:49;;;;;;;0.40;0.40;;;;;;;;;;5092602;28;20175;-64
2022/02/05 13:34:05;;;;;;;0.40;0.40;;;;;;;;;;5092527;28;20185;-63
2022/02/05 13:41:37;;;;;;;0.45;0.45;;;;;;;;;;5091946;28;20220;-63
2022/02/05 13:44:03;;;;;;;0.40;0.40;;;;;;;;;;5092216;28;20194;-63
2022/02/05 13:46:29;;;;;;;0.50;0.50;;;;;;;;;;5092154;28;20245;-63
2022/02/05 13:49:12;;;;;;;0.50;0.50;;;;;;;;;;5092305;28;20190;-63
2022/02/05 13:51:37;;;;;;;0.50;0.50;;;;;;;;;;5091764;28;20669;-63
2022/02/05 13:54:03;;;;;;;0.50;0.50;;;;;;;;;;5092297;28;20184;-63
2022/02/05 13:56:33;;;;;;;0.50;0.50;;;;;;;;;;5092075;28;20819;-64
2022/02/05 13:59:00;;;;;;;0.50;0.50;;;;;;;;;;5092331;28;20491;-64
2022/02/05 14:01:36;;;;;;;0.50;0.50;;;;;;;;;;5091653;28;20728;-64
2022/02/05 14:04:15;;;;;;;0.50;0.50;;;;;;;;;;5092114;28;20564;-64
2022/02/05 14:06:57;;;;;;;0.50;0.50;;;;;;;;;;5091954;28;20699;-64
2022/02/05 14:09:23;;;;;;;0.40;0.40;;;;;;;;;;5092096;28;20577;-64
2022/02/05 14:11:49;;;;;;;0.40;0.40;;;;;;;;;;5090645;28;20229;-64
2022/02/05 14:14:25;;;;;;;0.40;0.40;;;;;;;;;;5091902;28;20414;-63
2022/02/05 14:16:51;;;;;;;0.40;0.40;;;;;;;;;;5091856;28;20548;-64
2022/02/05 14:19:21;;;;;;;0.40;0.40;;;;;;;;;;5091676;28;20184;-64
2022/02/05 14:21:49;;;;;;;0.50;0.50;;;;;;;;;;5091313;28;20480;-64
2022/02/05 14:24:16;;;;;;;0.40;0.40;;;;;;;;;;5091815;28;20253;-64
2022/02/05 14:26:53;;;;;;;0.50;0.50;;;;;;;;;;5091601;28;20239;-64
2022/02/05 14:29:19;;;;;;;0.50;0.50;;;;;;;;;;5091594;28;20261;-64
2022/02/05 14:31:49;;;;;;;0.50;0.50;;;;;;;;;;5091309;28;20197;-64
2022/02/05 14:42:09;;;;;;;0.50;0.50;;;;;;;;;;5091174;28;20289;-64
2022/02/05 14:44:35;;;;;;;0.50;0.50;;;;;;;;;;5091210;28;20166;-64
2022/02/05 14:47:01;;;;;;;0.40;0.40;;;;;;;;;;5091467;28;20172;-64
2022/02/05 14:49:27;;;;;;;0.40;0.40;;;;;;;;;;5091434;28;20179;-64
2022/02/05 14:51:56;;;;;;;0.40;0.40;;;;;;;;;;5091279;28;20225;-64
2022/02/05 14:54:22;;;;;;;0.40;0.40;;;;;;;;;;5073361;28;20177;-64
2022/02/05 14:56:48;;;;;;;0.40;0.40;;;;;;;;;;5091370;28;20698;-63
2022/02/05 14:59:14;;;;;;;0.50;0.50;;;;;;;;;;5091792;28;20781;-63
2022/02/05 15:01:40;;;;;;;0.40;0.40;;;;;;;;;;5091029;28;20206;-64
2022/02/05 15:04:06;;;;;;;0.50;0.50;;;;;;;;;;5091373;28;20408;-64
2022/02/05 15:06:34;;;;;;;0.50;0.50;;;;;;;;;;5091286;28;20748;-64
2022/02/05 15:09:01;;;;;;;0.40;0.40;;;;;;;;;;5091394;28;20190;-63
2022/02/05 15:11:28;;;;;;;0.50;0.50;;;;;;;;;;5090984;28;20202;-63
2022/02/05 15:13:56;;;;;;;0.50;0.50;;;;;;;;;;5091374;28;20177;-64
2022/02/05 15:16:22;;;;;;;0.50;0.50;;;;;;;;;;5091224;28;20169;-64
2022/02/05 15:18:57;;;;;;;0.50;0.50;;;;;;;;;;5091270;28;20708;-63
2022/02/05 15:21:26;;;;;;;0.50;0.50;;;;;;;;;;5091175;28;20229;-64
2022/02/05 15:23:54;;;;;;;0.50;0.50;;;;;;;;;;5094268;28;20224;-64
2022/02/05 15:26:20;;;;;;;0.50;0.50;;;;;;;;;;5095107;28;20192;-64
2022/02/05 15:28:49;;;;;;;0.50;0.50;;;;;;;;;;5094965;28;20173;-63
2022/02/05 15:31:16;;;;;;;0.50;0.50;;;;;;;;;;5094701;28;20166;-64
2022/02/05 15:33:44;;;;;;;0.50;0.50;;;;;;;;;;5094962;28;20231;-64
2022/02/05 15:36:12;;;;;;;0.40;0.40;;;;;;;;;;5095109;28;20548;-64
2022/02/05 15:39:32;;;;;;;0.50;0.50;;;;;;;;;;5093062;28;20541;-64
2022/02/05 15:44:09;;;;;;;0.50;0.50;;;;;;;;;;5094676;28;20177;-63
2022/02/05 15:46:35;;;;;;;0.55;0.55;;;;;;;;;;5094541;28;20169;-63
2022/02/05 15:49:01;;;;;;;0.40;0.40;;;;;;;;;;5094630;28;20181;-63
2022/02/05 15:51:30;;;;;;;0.50;0.50;;;;;;;;;;5094325;28;20432;-64
2022/02/05 15:54:00;;;;;;;0.50;0.50;;;;;;;;;;5094136;28;20783;-64
2022/02/05 15:56:57;;;;;;;0.50;0.50;;;;;;;;;;5094623;28;20170;-63
2022/02/05 15:59:18;;;;;;;0.60;0.60;;;;;;;;;;5093588;28;20252;-63
2022/02/05 16:01:45;;;;;;;0.60;0.60;;;;;;;;;;5094554;28;20214;-64
2022/02/05 16:04:12;;;;;;;0.50;0.50;;;;;;;;;;5094084;28;20640;-64
2022/02/05 16:06:38;;;;;;;0.50;0.50;;;;;;;;;;5094345;28;20166;-63
2022/02/05 16:09:04;;;;;;;0.50;0.50;;;;;;;;;;5094365;28;20175;-63
2022/02/05 16:13:59;;;;;;;0.50;0.50;;;;;;;;;;5090050;28;20486;-64
2022/02/05 16:16:25;;;;;;;0.60;0.60;;;;;;;;;;5091197;28;20193;-64
2022/02/05 16:18:51;;;;;;;0.50;0.50;;;;;;;;;;5074692;28;20172;-63
2022/02/05 16:21:18;;;;;;;0.50;0.50;;;;;;;;;;5092479;28;20254;-63
2022/02/05 16:23:44;;;;;;;0.50;0.50;;;;;;;;;;5093896;28;20431;-64
2022/02/05 16:26:10;;;;;;;0.50;0.50;;;;;;;;;;5094981;28;20565;-62
2022/02/05 16:28:37;;;;;;;0.43;0.43;;;;;;;;;;5096747;28;20176;-64
2022/02/05 16:31:06;;;;;;;0.50;0.50;;;;;;;;;;5098187;28;20795;-64
2022/02/05 16:33:34;;;;;;;0.50;0.50;;;;;;;;;;5077471;28;20291;-64
2022/02/05 16:36:06;;;;;;;0.60;0.60;;;;;;;;;;5094611;28;20182;-64
2022/02/05 16:38:33;;;;;;;0.60;0.60;;;;;;;;;;5094079;28;20174;-64
2022/02/05 16:41:01;;;;;;;0.50;0.50;;;;;;;;;;5093707;28;20247;-65
2022/02/05 16:43:27;;;;;;;0.50;0.50;;;;;;;;;;5094343;28;20184;-64
2022/02/05 16:45:53;;;;;;;0.50;0.50;;;;;;;;;;5094041;28;20174;-64
2022/02/05 16:48:19;;;;;;;0.60;0.60;;;;;;;;;;5093604;28;20261;-65
2022/02/05 16:50:46;;;;;;;0.50;0.50;;;;;;;;;;5093153;28;20590;-64
2022/02/05 16:53:13;;;;;;;0.50;0.50;;;;;;;;;;5093532;28;20200;-65
2022/02/05 16:55:39;;;;;;;0.52;0.52;;;;;;;;;;5093697;28;20180;-64
2022/02/05 16:58:06;;;;;;;0.60;0.60;;;;;;;;;;5075434;28;20299;-64
2022/02/05 17:00:35;;;;;;;0.50;0.50;;;;;;;;;;5092462;28;20212;-65
2022/02/05 17:03:02;;;;;;;0.40;0.40;;;;;;;;;;5075856;28;20270;-65
2022/02/05 17:05:30;;;;;;;0.50;0.50;;;;;;;;;;5093383;28;20170;-64
2022/02/05 17:08:00;;;;;;;0.50;0.50;;;;;;;;;;5093163;28;20592;-64
2022/02/05 17:10:29;;;;;;;0.50;0.50;;;;;;;;;;5092107;28;20221;-65
2022/02/05 17:12:56;;;;;;;0.50;0.50;;;;;;;;;;5092316;28;20698;-62
2022/02/05 17:15:23;;;;;;;0.60;0.60;;;;;;;;;;5093034;28;20169;-64
2022/02/05 17:17:59;;;;;;;0.50;0.50;;;;;;;;;;5093201;28;20256;-65
2022/02/05 17:20:29;;;;;;;0.40;0.40;;;;;;;;;;5093337;28;20191;-65
2022/02/05 17:22:59;;;;;;;0.50;0.50;;;;;;;;;;5094295;28;20225;-64
2022/02/05 17:25:31;;;;;;;0.50;0.50;;;;;;;;;;5092932;28;20529;-64
2022/02/05 17:27:57;;;;;;;0.50;0.50;;;;;;;;;;5093676;28;20558;-65
2022/02/05 17:30:23;;;;;;;0.60;0.60;;;;;;;;;;5093144;28;20194;-65
2022/02/05 17:32:51;;;;;;;0.60;0.60;;;;;;;;;;5092920;28;20189;-64
2022/02/05 17:35:19;;;;;;;0.50;0.50;;;;;;;;;;5092925;28;20180;-64
2022/02/05 17:37:45;;;;;;;0.60;0.60;;;;;;;;;;5092542;28;20165;-63
2022/02/05 17:40:12;;;;;;;0.50;0.50;;;;;;;;;;5092375;28;20608;-65
2022/02/05 17:42:38;;;;;;;0.50;0.50;;;;;;;;;;5092745;28;20452;-66
2022/02/05 17:45:04;;;;;;;0.60;0.60;;;;;;;;;;5092493;28;20172;-63
2022/02/05 17:47:31;;;;;;;0.50;0.50;;;;;;;;;;5092704;28;20407;-63
2022/02/05 17:49:57;;;;;;;0.50;0.50;;;;;;;;;;5092645;28;20197;-62
2022/02/05 17:52:23;;;;;;;0.50;0.50;;;;;;;;;;5092636;28;20203;-63
2022/02/05 17:54:53;;;;;;;0.50;0.50;;;;;;;;;;5092506;28;20175;-64
2022/02/05 17:57:19;;;;;;;0.55;0.55;;;;;;;;;;5091948;28;20180;-64